createdAt,value
2022-11-29T00:02:53.358Z,5.05
2022-11-29T00:07:55.476Z,4.98
2022-11-29T00:12:57.410Z,4.92
2022-11-29T00:17:59.388Z,4.80
2022-11-29T00:23:01.951Z,4.77
2022-11-29T00:28:03.964Z,5.02
2022-11-29T00:33:05.852Z,4.73
2022-11-29T00:38:07.924Z,4.84
2022-11-29T00:43:09.904Z,4.56
2022-11-29T00:48:11.760Z,4.67
2022-11-29T00:53:13.750Z,4.62
2022-11-29T00:58:15.584Z,4.49
2022-11-29T01:03:18.079Z,5.00
2022-11-29T01:08:20.191Z,4.98
2022-11-29T01:13:22.131Z,4.83
2022-11-29T01:18:25.115Z,4.63
2022-11-29T01:23:28.255Z,5.01
2022-11-29T01:28:30.644Z,4.94
2022-11-29T01:33:32.779Z,4.65
2022-11-29T01:38:35.969Z,5.01
2022-11-29T01:44:03.344Z,4.74
2022-11-29T01:49:28.190Z,4.75
2022-11-29T01:54:31.908Z,4.82
2022-11-29T01:59:33.898Z,4.90
2022-11-29T02:04:37.801Z,5.22
2022-11-29T02:09:39.732Z,5.27
2022-11-29T02:15:20.163Z,4.97
2022-11-29T02:20:51.128Z,5.30
2022-11-29T02:26:25.921Z,5.27
2022-11-29T02:31:33.799Z,5.27
2022-11-29T02:37:25.447Z,5.40
2022-11-29T02:42:56.852Z,5.07
2022-11-29T02:48:17.075Z,5.28
2022-11-29T02:53:29.784Z,5.27
2022-11-29T02:59:05.359Z,5.43
2022-11-29T03:04:26.271Z,5.42
2022-11-29T03:09:43.747Z,5.47
2022-11-29T03:15:11.181Z,5.39
2022-11-29T03:20:43.926Z,5.23
2022-11-29T03:26:00.830Z,5.12
2022-11-29T03:31:41.720Z,5.57
2022-11-29T03:36:48.567Z,5.47
2022-11-29T03:41:58.640Z,5.47
2022-11-29T03:47:04.935Z,5.56
2022-11-29T03:52:26.683Z,5.13
2022-11-29T03:57:47.715Z,5.16
2022-11-29T04:03:14.898Z,5.37
2022-11-29T04:08:49.807Z,5.56
2022-11-29T04:14:28.274Z,5.30
2022-11-29T04:20:07.800Z,5.79
2022-11-29T04:25:44.667Z,5.87
2022-11-29T04:31:13.658Z,5.69
2022-11-29T04:36:27.602Z,5.71
2022-11-29T04:41:35.447Z,5.85
2022-11-29T04:47:09.454Z,5.56
2022-11-29T04:52:14.530Z,5.53
2022-11-29T04:57:37.484Z,5.89
2022-11-29T05:02:57.682Z,5.65
2022-11-29T05:08:18.035Z,5.72
2022-11-29T05:13:19.935Z,5.45
2022-11-29T05:18:49.888Z,5.71
2022-11-29T05:24:10.197Z,5.84
2022-11-29T05:29:31.384Z,5.81
2022-11-29T05:35:06.841Z,5.57
2022-11-29T05:40:14.542Z,5.97
2022-11-29T05:46:10.394Z,5.50
2022-11-29T05:51:28.831Z,5.75
2022-11-29T05:57:01.651Z,5.72
2022-11-29T06:02:12.872Z,5.96
2022-11-29T06:07:23.025Z,5.52
2022-11-29T06:12:26.892Z,5.72
2022-11-29T06:17:37.281Z,5.72
2022-11-29T06:23:24.164Z,5.50
2022-11-29T06:28:54.021Z,5.71
2022-11-29T06:34:10.136Z,5.79
2022-11-29T06:39:12.371Z,5.74
2022-11-29T06:44:14.708Z,5.93
2022-11-29T06:49:45.539Z,5.69
2022-11-29T06:54:53.511Z,5.98
2022-11-29T06:59:58.838Z,5.90
2022-11-29T07:05:27.618Z,5.99
2022-11-29T07:10:31.766Z,5.78
2022-11-29T07:15:34.722Z,6.05
2022-11-29T07:20:42.635Z,6.09
2022-11-29T07:26:10.875Z,6.16
2022-11-29T07:31:28.358Z,6.28
2022-11-29T07:36:53.089Z,6.36
2022-11-29T07:42:04.136Z,6.36
2022-11-29T07:47:07.180Z,6.37
2022-11-29T07:52:13.091Z,6.50
2022-11-29T07:57:15.196Z,6.16
2022-11-29T08:02:31.566Z,6.38
2022-11-29T08:07:38.284Z,6.35
2022-11-29T08:12:45.291Z,6.24
2022-11-29T08:17:47.721Z,6.70
2022-11-29T08:22:59.881Z,6.57
2022-11-29T08:28:02.883Z,6.81
2022-11-29T08:33:05.261Z,6.55
2022-11-29T08:38:07.173Z,6.55
2022-11-29T08:43:09.152Z,6.56
2022-11-29T08:48:13.823Z,6.71
2022-11-29T08:53:34.662Z,6.79
2022-11-29T08:58:37.723Z,6.96
2022-11-29T09:03:58.630Z,6.82
2022-11-29T09:09:01.479Z,6.71
2022-11-29T09:14:08.161Z,6.76
2022-11-29T09:19:10.347Z,6.85
2022-11-29T09:24:12.296Z,6.84
2022-11-29T09:29:16.764Z,6.58
2022-11-29T09:34:19.043Z,6.58
2022-11-29T09:39:21.285Z,6.87
2022-11-29T09:44:35.420Z,6.91
2022-11-29T09:49:40.215Z,7.10
2022-11-29T09:55:05.408Z,7.15
2022-11-29T10:00:16.474Z,7.04
2022-11-29T10:05:21.500Z,7.02
2022-11-29T10:10:31.165Z,7.29
2022-11-29T10:15:41.913Z,7.46
2022-11-29T10:20:49.024Z,7.35
2022-11-29T10:25:54.154Z,7.43
2022-11-29T10:31:02.125Z,7.00
2022-11-29T10:36:15.850Z,7.27
2022-11-29T10:41:22.593Z,7.33
2022-11-29T10:46:32.351Z,7.16
2022-11-29T10:51:34.956Z,6.99
2022-11-29T10:56:43.905Z,6.89
2022-11-29T11:01:52.493Z,7.35
2022-11-29T11:07:01.002Z,6.82
2022-11-29T11:12:14.992Z,6.95
2022-11-29T11:17:33.948Z,6.91
2022-11-29T11:22:39.892Z,7.30
2022-11-29T11:27:42.058Z,7.42
2022-11-29T11:33:22.060Z,7.81
2022-11-29T11:38:24.036Z,7.60
2022-11-29T11:43:26.002Z,7.65
2022-11-29T11:48:28.214Z,7.34
2022-11-29T11:53:36.413Z,7.46
2022-11-29T11:58:53.388Z,7.71
2022-11-29T12:04:16.966Z,7.37
2022-11-29T12:09:41.995Z,7.37
2022-11-29T12:15:03.415Z,6.82
2022-11-29T12:20:24.485Z,7.39
2022-11-29T12:25:33.347Z,7.43
2022-11-29T12:30:35.813Z,7.15
2022-11-29T12:35:43.587Z,6.91
2022-11-29T12:41:30.079Z,6.46
2022-11-29T12:46:33.290Z,6.67
2022-11-29T12:51:56.717Z,6.96
2022-11-29T12:57:19.227Z,6.83
2022-11-29T13:02:42.358Z,6.86
2022-11-29T13:08:08.551Z,6.88
2022-11-29T13:13:35.187Z,6.68
2022-11-29T13:18:44.683Z,6.93
2022-11-29T13:24:08.703Z,6.67
2022-11-29T13:29:17.114Z,6.65
2022-11-29T13:34:24.626Z,6.67
2022-11-29T13:39:58.858Z,6.63
2022-11-29T13:45:16.140Z,6.74
2022-11-29T13:50:39.407Z,6.36
2022-11-29T13:55:45.835Z,6.57
2022-11-29T14:00:48.720Z,6.35
2022-11-29T14:05:54.067Z,6.36
2022-11-29T14:10:59.699Z,6.08
2022-11-29T14:16:05.055Z,6.24
2022-11-29T14:21:07.102Z,6.25
2022-11-29T14:26:08.952Z,6.13
2022-11-29T14:31:11.118Z,6.27
2022-11-29T14:36:18.593Z,6.24
2022-11-29T14:42:16.863Z,6.50
2022-11-29T14:47:27.021Z,6.16
2022-11-29T14:52:37.486Z,6.36
2022-11-29T14:57:51.494Z,6.42
2022-11-29T15:02:53.324Z,6.53
2022-11-29T15:08:04.377Z,6.06
2022-11-29T15:13:11.250Z,6.54
2022-11-29T15:18:34.720Z,6.20
2022-11-29T15:23:44.018Z,6.27
2022-11-29T15:28:46.243Z,6.16
2022-11-29T15:33:49.400Z,6.39
2022-11-29T15:38:55.636Z,6.54
2022-11-29T15:44:03.651Z,6.43
2022-11-29T15:49:26.904Z,6.65
2022-11-29T15:54:38.823Z,6.64
2022-11-29T15:59:51.506Z,6.66
2022-11-29T16:04:58.381Z,6.63
2022-11-29T16:10:05.612Z,6.75
2022-11-29T16:15:34.825Z,6.84
2022-11-29T16:20:36.999Z,6.59
2022-11-29T16:25:55.571Z,6.46
2022-11-29T16:30:59.224Z,6.25
2022-11-29T16:36:05.307Z,6.27
2022-11-29T16:41:20.008Z,6.27
2022-11-29T16:46:21.925Z,6.19
2022-11-29T16:51:45.715Z,6.42
2022-11-29T16:56:48.030Z,6.46
2022-11-29T17:01:50.395Z,6.23
2022-11-29T17:06:53.981Z,6.31
2022-11-29T17:11:56.545Z,6.35
2022-11-29T17:17:02.128Z,6.30
2022-11-29T17:22:10.596Z,6.55
2022-11-29T17:27:19.084Z,6.55
2022-11-29T17:32:26.534Z,6.53
2022-11-29T17:37:30.214Z,6.41
2022-11-29T17:42:32.197Z,5.98
2022-11-29T17:47:34.368Z,6.35
2022-11-29T17:52:37.025Z,6.29
2022-11-29T17:57:39.468Z,6.16
2022-11-29T18:02:41.428Z,6.40
2022-11-29T18:07:58.175Z,6.42
2022-11-29T18:13:00.163Z,6.55
2022-11-29T18:18:02.113Z,6.11
2022-11-29T18:23:07.921Z,6.28
2022-11-29T18:28:11.496Z,6.02
2022-11-29T18:33:13.376Z,5.87
2022-11-29T18:38:16.452Z,6.30
2022-11-29T18:43:18.691Z,6.43
2022-11-29T18:48:20.659Z,6.16
2022-11-29T18:53:22.587Z,6.25
2022-11-29T18:58:24.823Z,6.30
2022-11-29T19:03:26.673Z,6.45
2022-11-29T19:08:28.573Z,6.04
2022-11-29T19:13:30.737Z,6.10
2022-11-29T19:18:33.076Z,6.34
2022-11-29T19:23:35.324Z,6.25
2022-11-29T19:28:44.996Z,6.04
2022-11-29T19:33:47.209Z,6.20
2022-11-29T19:38:53.424Z,6.36
2022-11-29T19:43:57.833Z,6.25
2022-11-29T19:49:00.951Z,6.16
2022-11-29T19:54:05.681Z,6.52
2022-11-29T19:59:08.355Z,6.28
2022-11-29T20:04:12.364Z,6.30
2022-11-29T20:09:14.543Z,6.25
2022-11-29T20:14:16.460Z,6.28
2022-11-29T20:19:18.499Z,6.46
2022-11-29T20:24:20.718Z,6.49
2022-11-29T20:29:27.075Z,6.08
2022-11-29T20:34:29.067Z,5.99
2022-11-29T20:39:37.779Z,5.94
2022-11-29T20:44:49.339Z,6.20
2022-11-29T20:49:52.007Z,6.15
2022-11-29T20:54:53.880Z,6.00
2022-11-29T20:59:55.921Z,5.91
2022-11-29T21:04:57.825Z,5.92
2022-11-29T21:10:01.509Z,5.98
2022-11-29T21:15:04.323Z,6.06
2022-11-29T21:20:08.110Z,6.24
2022-11-29T21:25:32.494Z,5.95
2022-11-29T21:30:34.624Z,5.80
2022-11-29T21:35:42.102Z,6.00
2022-11-29T21:40:43.960Z,5.82
2022-11-29T21:45:48.971Z,5.97
2022-11-29T21:50:50.876Z,5.75
2022-11-29T21:56:00.090Z,5.91
2022-11-29T22:01:13.396Z,5.81
2022-11-29T22:06:20.495Z,5.79
2022-11-29T22:11:34.128Z,5.72
2022-11-29T22:16:36.276Z,6.04
2022-11-29T22:21:40.375Z,5.91
2022-11-29T22:26:43.728Z,6.22
2022-11-29T22:31:48.555Z,6.05
2022-11-29T22:36:56.803Z,6.19
2022-11-29T22:42:04.977Z,6.20
2022-11-29T22:47:06.999Z,6.28
2022-11-29T22:52:08.850Z,6.30
2022-11-29T22:57:10.780Z,6.10
2022-11-29T23:02:12.845Z,5.97
2022-11-29T23:07:14.963Z,5.97
2022-11-29T23:12:17.201Z,5.79
2022-11-29T23:17:19.157Z,6.08
2022-11-29T23:22:21.207Z,6.12
2022-11-29T23:27:23.868Z,5.90
2022-11-29T23:32:25.772Z,6.15
2022-11-29T23:37:27.720Z,5.93
2022-11-29T23:42:29.727Z,6.01
2022-11-29T23:47:31.599Z,6.13
2022-11-29T23:52:36.732Z,6.00
2022-11-29T23:57:38.668Z,6.13
